Time;durP1;ratioP1;P1;durP2;ratioP2;P2;SDS_P1;SDS_P2;PMS_P1;PMS_P2;Temp;Humidity;BMP_temperature;BMP_pressure;BME280_temperature;BME280_humidity;BME280_pressure;Samples;Min_cycle;Max_cycle;Signal;HPM_P1;HPM_P2
2023/05/09 00:00:47;;;;;;;22.52;13.15;;;11.20;98.70;;;;;;5078855;28;20215;-69
2023/05/09 00:03:35;;;;;;;19.75;13.13;;;11.20;98.60;;;;;;5076257;28;20226;-70
2023/05/09 00:06:25;;;;;;;20.55;13.00;;;11.10;99.00;;;;;;5078331;28;20231;-70
2023/05/09 00:09:14;;;;;;;19.55;13.57;;;11.10;98.90;;;;;;5077551;28;20368;-71
2023/05/09 00:12:03;;;;;;;21.40;14.05;;;11.10;99.10;;;;;;5072427;28;20709;-70
2023/05/09 00:14:53;;;;;;;22.50;13.23;;;11.10;99.60;;;;;;5103614;27;20258;-70
2023/05/09 00:17:44;;;;;;;25.48;14.02;;;11.10;99.60;;;;;;5088389;28;20234;-69
2023/05/09 00:20:33;;;;;;;25.88;13.20;;;11.10;99.70;;;;;;5088467;28;20245;-68
2023/05/09 00:23:22;;;;;;;32.72;13.10;;;11.00;99.90;;;;;;5078436;28;20677;-66
2023/05/09 00:26:11;;;;;;;29.35;13.00;;;11.00;99.90;;;;;;5078620;28;20220;-70
2023/05/09 00:29:02;;;;;;;22.00;12.38;;;11.00;99.90;;;;;;5078559;28;20231;-69
2023/05/09 00:31:51;;;;;;;24.98;13.35;;;10.90;99.90;;;;;;5076070;28;20688;-69
2023/05/09 00:34:42;;;;;;;25.23;13.40;;;10.80;99.90;;;;;;5078599;28;20227;-69
2023/05/09 00:37:31;;;;;;;25.73;13.38;;;10.90;99.90;;;;;;5083434;28;20353;-73
2023/05/09 00:40:20;;;;;;;24.50;15.07;;;10.90;99.90;;;;;;5074736;28;20609;-69
2023/05/09 00:43:09;;;;;;;27.05;15.23;;;10.80;99.90;;;;;;5080693;28;21100;-68
2023/05/09 00:45:58;;;;;;;24.63;14.82;;;10.80;99.90;;;;;;5080439;28;20238;-69
2023/05/09 00:48:47;;;;;;;21.63;14.98;;;10.80;99.90;;;;;;5083177;28;20556;-71
2023/05/09 00:51:39;;;;;;;25.20;16.38;;;10.80;99.90;;;;;;5080152;28;20245;-68
2023/05/09 00:54:28;;;;;;;26.05;16.33;;;10.80;99.90;;;;;;5077197;28;20224;-69
2023/05/09 00:57:17;;;;;;;24.83;16.25;;;10.70;99.90;;;;;;5081658;28;20219;-70
2023/05/09 01:00:11;;;;;;;27.52;15.95;;;10.70;99.90;;;;;;5100592;27;20231;-70
2023/05/09 01:03:01;;;;;;;25.20;15.25;;;10.60;99.90;;;;;;5078545;28;20740;-71
2023/05/09 01:05:56;;;;;;;25.40;14.38;;;10.60;98.90;;;;;;5075761;28;20223;-70
2023/05/09 01:08:52;;;;;;;21.50;13.80;;;10.60;97.90;;;;;;5073766;28;20224;-70
2023/05/09 01:11:45;;;;;;;24.42;14.65;;;10.60;98.10;;;;;;5077408;28;20711;-71
2023/05/09 01:14:42;;;;;;;21.90;14.65;;;10.60;99.00;;;;;;5069521;28;20796;-71
2023/05/09 01:17:41;;;;;;;23.02;14.05;;;10.60;98.40;;;;;;5078843;28;20226;-69
2023/05/09 01:20:33;;;;;;;25.08;15.40;;;10.50;98.70;;;;;;5079460;28;20227;-69
2023/05/09 01:23:54;;;;;;;25.75;14.57;;;10.50;98.10;;;;;;5075616;28;20303;-70
2023/05/09 01:26:55;;;;;;;24.13;13.98;;;10.60;98.40;;;;;;5074525;28;20256;-70
2023/05/09 01:29:48;;;;;;;24.52;14.15;;;10.60;98.20;;;;;;5074707;28;20493;-69
2023/05/09 01:32:39;;;;;;;25.33;14.32;;;10.60;98.20;;;;;;5088113;27;20227;-69
2023/05/09 01:35:31;;;;;;;21.92;13.55;;;10.60;98.30;;;;;;5103999;27;20310;-69
2023/05/09 01:38:23;;;;;;;21.98;14.25;;;10.50;98.30;;;;;;5081116;28;20320;-70
2023/05/09 01:41:15;;;;;;;23.88;14.60;;;10.50;98.20;;;;;;5080858;27;20306;-67
2023/05/09 01:44:08;;;;;;;19.58;13.70;;;10.50;98.80;;;;;;5075338;28;20253;-70
2023/05/09 01:47:00;;;;;;;21.85;13.00;;;10.40;98.60;;;;;;5084396;28;20908;-71
2023/05/09 01:49:50;;;;;;;24.00;13.93;;;10.40;98.60;;;;;;5072743;28;20222;-71
2023/05/09 01:52:42;;;;;;;21.48;13.40;;;10.40;98.80;;;;;;5067357;28;20782;-72
2023/05/09 01:55:34;;;;;;;17.85;13.10;;;10.40;98.80;;;;;;5079111;28;20220;-70
2023/05/09 01:58:24;;;;;;;21.23;13.80;;;10.30;99.10;;;;;;5079053;28;20314;-71
2023/05/09 02:01:14;;;;;;;24.23;14.18;;;10.30;99.60;;;;;;5068115;28;20232;-70
2023/05/09 02:04:06;;;;;;;23.30;14.32;;;10.30;99.50;;;;;;5075856;28;20220;-70
2023/05/09 02:06:55;;;;;;;19.73;13.15;;;10.20;99.20;;;;;;5073683;28;21236;-70
2023/05/09 02:09:46;;;;;;;20.63;14.02;;;10.20;99.30;;;;;;5076497;28;20256;-72
2023/05/09 02:12:35;;;;;;;19.35;13.50;;;10.20;99.10;;;;;;5072498;28;20219;-71
2023/05/09 02:15:24;;;;;;;20.83;13.77;;;10.20;98.80;;;;;;5073858;28;20311;-70
2023/05/09 02:18:13;;;;;;;24.60;14.25;;;10.20;98.70;;;;;;5073595;28;20226;-70
2023/05/09 02:21:04;;;;;;;21.42;14.68;;;10.30;98.70;;;;;;5081547;28;20228;-71
2023/05/09 02:23:53;;;;;;;22.10;14.75;;;10.10;98.80;;;;;;5077066;28;20220;-70
2023/05/09 02:26:42;;;;;;;24.45;15.10;;;10.10;99.00;;;;;;5078670;28;20675;-70
2023/05/09 02:29:38;;;;;;;24.00;14.70;;;10.20;98.80;;;;;;5069439;28;20318;-70
2023/05/09 02:32:32;;;;;;;26.67;14.80;;;10.10;98.30;;;;;;5083880;28;20724;-69
2023/05/09 02:35:22;;;;;;;22.75;15.23;;;9.90;98.60;;;;;;5082228;28;20255;-71
2023/05/09 02:38:13;;;;;;;24.05;15.50;;;10.10;98.80;;;;;;5071377;28;20227;-71
2023/05/09 02:41:02;;;;;;;26.35;15.43;;;10.00;99.10;;;;;;5099932;27;20234;-71
2023/05/09 02:43:51;;;;;;;24.50;15.95;;;10.00;99.30;;;;;;5073048;28;20660;-71
2023/05/09 02:46:42;;;;;;;25.60;15.60;;;10.10;99.00;;;;;;5076030;28;20230;-71
2023/05/09 02:49:31;;;;;;;26.90;15.32;;;9.90;98.40;;;;;;5069481;28;20228;-71
2023/05/09 02:52:21;;;;;;;24.20;15.75;;;9.70;99.50;;;;;;5103802;27;20314;-70
2023/05/09 02:55:12;;;;;;;19.45;14.65;;;9.80;99.80;;;;;;5076808;28;20959;-67
2023/05/09 02:58:02;;;;;;;25.55;15.70;;;9.80;99.70;;;;;;5074746;28;20365;-70
2023/05/09 03:01:03;;;;;;;27.77;16.33;;;9.80;99.90;;;;;;5076381;28;20227;-70
2023/05/09 03:03:52;;;;;;;24.73;15.60;;;9.70;99.70;;;;;;5078061;28;20276;-72
2023/05/09 03:06:42;;;;;;;23.42;14.68;;;9.70;99.90;;;;;;5079430;28;20230;-71
2023/05/09 03:09:32;;;;;;;24.95;14.40;;;9.80;99.40;;;;;;5077689;28;20629;-70
2023/05/09 03:12:22;;;;;;;20.00;13.65;;;9.60;99.30;;;;;;5069070;28;20699;-71
2023/05/09 03:15:14;;;;;;;19.05;13.63;;;9.70;98.90;;;;;;5073673;28;20709;-71
2023/05/09 03:18:06;;;;;;;23.95;14.32;;;9.70;97.90;;;;;;5089862;28;20242;-71
2023/05/09 03:20:54;;;;;;;19.65;14.05;;;9.70;98.30;;;;;;5082286;28;20223;-70
2023/05/09 03:23:43;;;;;;;21.17;15.35;;;9.90;98.90;;;;;;5074960;28;20281;-68
2023/05/09 03:26:34;;;;;;;20.10;13.98;;;9.90;98.40;;;;;;5070365;28;20218;-68
2023/05/09 03:29:24;;;;;;;23.45;14.18;;;10.00;98.80;;;;;;5075364;28;20243;-69
2023/05/09 03:32:14;;;;;;;21.85;14.55;;;10.00;98.70;;;;;;5075444;28;20207;-69
2023/05/09 03:35:04;;;;;;;21.33;13.63;;;10.00;98.40;;;;;;5081365;28;20280;-71
2023/05/09 03:37:53;;;;;;;23.60;13.57;;;10.20;98.00;;;;;;5077612;28;20227;-71
2023/05/09 03:40:42;;;;;;;19.95;12.75;;;10.10;98.00;;;;;;5068969;28;20220;-71
2023/05/09 03:43:32;;;;;;;21.55;13.48;;;10.10;97.20;;;;;;5075849;28;20227;-71
2023/05/09 03:46:24;;;;;;;22.67;14.02;;;10.10;98.10;;;;;;5062195;28;20212;-73
2023/05/09 03:49:13;;;;;;;21.15;13.23;;;10.20;97.50;;;;;;5074041;28;20984;-71
2023/05/09 03:52:03;;;;;;;19.65;13.48;;;10.30;97.50;;;;;;5079101;28;20250;-73
2023/05/09 03:54:53;;;;;;;19.83;13.27;;;10.40;96.50;;;;;;5083677;28;20231;-73
2023/05/09 03:57:43;;;;;;;20.83;13.07;;;10.50;96.30;;;;;;5081056;28;20223;-73
2023/05/09 04:00:32;;;;;;;19.08;13.10;;;10.50;96.20;;;;;;5081057;28;20800;-72
2023/05/09 04:03:30;;;;;;;17.35;12.35;;;10.50;96.50;;;;;;5067308;28;20339;-70
2023/05/09 04:06:20;;;;;;;21.52;12.60;;;10.60;96.20;;;;;;5079659;28;20224;-71
2023/05/09 04:09:09;;;;;;;20.73;13.00;;;10.70;95.60;;;;;;5076546;28;20231;-72
2023/05/09 04:11:58;;;;;;;22.80;12.57;;;10.70;95.10;;;;;;5077051;28;20311;-71
2023/05/09 04:14:47;;;;;;;25.83;13.60;;;10.80;95.20;;;;;;5107522;27;20479;-69
2023/05/09 04:17:37;;;;;;;19.75;13.80;;;10.50;94.50;;;;;;5077297;28;20235;-70
2023/05/09 04:20:28;;;;;;;18.48;12.85;;;10.40;94.80;;;;;;5075741;28;20594;-70
2023/05/09 04:23:17;;;;;;;22.98;13.32;;;10.30;95.30;;;;;;5076755;28;20261;-71
2023/05/09 04:26:08;;;;;;;22.30;13.10;;;10.10;95.60;;;;;;5067075;28;20220;-71
2023/05/09 04:28:57;;;;;;;23.23;13.80;;;10.30;95.60;;;;;;5108352;27;20709;-71
2023/05/09 04:31:46;;;;;;;23.48;13.60;;;10.30;95.90;;;;;;5082471;28;20300;-71
2023/05/09 04:34:35;;;;;;;19.10;13.55;;;10.40;96.20;;;;;;5076717;28;20228;-72
2023/05/09 04:37:33;;;;;;;19.90;12.73;;;10.70;95.80;;;;;;5081888;28;20698;-71
2023/05/09 04:40:23;;;;;;;19.83;12.85;;;10.70;95.50;;;;;;5082165;28;20219;-71
2023/05/09 04:43:18;;;;;;;19.33;12.65;;;10.70;95.70;;;;;;5076915;28;20229;-72
2023/05/09 04:46:07;;;;;;;19.17;12.57;;;10.90;94.70;;;;;;5108861;27;20302;-71
2023/05/09 04:48:58;;;;;;;19.77;12.80;;;11.00;94.70;;;;;;5075371;28;20235;-70
2023/05/09 04:51:47;;;;;;;17.02;11.82;;;11.10;95.00;;;;;;5074315;28;20794;-72
2023/05/09 04:54:37;;;;;;;18.13;11.63;;;11.20;95.10;;;;;;5087914;28;20231;-72
2023/05/09 04:57:27;;;;;;;16.67;10.98;;;11.20;94.40;;;;;;5078148;28;20272;-72
2023/05/09 05:00:18;;;;;;;15.52;11.00;;;11.60;93.80;;;;;;5085239;28;20304;-71
2023/05/09 05:03:09;;;;;;;13.70;10.40;;;12.00;92.40;;;;;;5079211;28;20223;-69
2023/05/09 05:05:57;;;;;;;16.75;10.38;;;12.00;92.20;;;;;;5075435;28;20615;-68
2023/05/09 05:08:46;;;;;;;14.32;10.20;;;11.80;92.50;;;;;;5077911;28;20212;-70
2023/05/09 05:11:37;;;;;;;18.88;11.40;;;11.80;92.40;;;;;;5082134;28;20259;-68
2023/05/09 05:14:26;;;;;;;14.70;10.30;;;11.80;93.10;;;;;;5063815;28;20311;-71
2023/05/09 05:17:17;;;;;;;20.65;11.18;;;12.30;93.40;;;;;;5084936;28;20232;-71
2023/05/09 05:20:09;;;;;;;16.17;10.75;;;12.30;93.10;;;;;;5078407;28;20583;-73
2023/05/09 05:23:02;;;;;;;16.58;10.00;;;12.60;92.50;;;;;;5089641;27;20227;-72
2023/05/09 05:25:51;;;;;;;16.88;10.00;;;12.70;92.10;;;;;;5102397;27;20231;-72
2023/05/09 05:28:41;;;;;;;17.23;10.30;;;12.80;90.80;;;;;;5071029;28;20246;-73
2023/05/09 05:31:31;;;;;;;13.38;8.93;;;12.90;91.10;;;;;;5080693;28;20243;-70
2023/05/09 05:34:19;;;;;;;12.40;9.43;;;12.70;91.30;;;;;;5072841;28;20707;-69
2023/05/09 05:37:08;;;;;;;19.60;10.23;;;12.90;91.20;;;;;;5071091;28;20243;-72
2023/05/09 05:39:57;;;;;;;12.98;8.77;;;12.90;91.00;;;;;;5080784;28;20396;-70
2023/05/09 05:42:46;;;;;;;15.90;8.38;;;13.30;90.50;;;;;;5073453;28;20702;-70
2023/05/09 05:45:37;;;;;;;13.45;8.32;;;13.30;89.20;;;;;;5079339;28;20313;-70
2023/05/09 05:48:28;;;;;;;12.95;8.27;;;13.50;90.30;;;;;;5079075;28;20246;-70
2023/05/09 05:51:18;;;;;;;14.70;8.13;;;13.60;88.20;;;;;;5103201;27;20293;-70
2023/05/09 05:54:07;;;;;;;14.70;8.45;;;14.60;86.30;;;;;;5084823;27;20274;-69
2023/05/09 05:56:57;;;;;;;12.63;8.20;;;16.00;82.90;;;;;;5067514;28;20227;-68
2023/05/09 05:59:47;;;;;;;14.88;7.90;;;17.20;83.00;;;;;;5071685;28;20277;-71
2023/05/09 06:02:38;;;;;;;11.90;7.80;;;18.20;75.30;;;;;;5075025;28;20216;-69
2023/05/09 06:05:27;;;;;;;11.15;7.38;;;20.50;69.80;;;;;;5080193;28;20620;-68
2023/05/09 06:08:16;;;;;;;12.13;7.70;;;20.30;67.90;;;;;;5073752;28;20813;-70
2023/05/09 06:11:05;;;;;;;12.52;7.50;;;18.80;70.00;;;;;;5073257;28;20718;-70
2023/05/09 06:13:54;;;;;;;13.50;8.05;;;17.40;71.90;;;;;;5100522;27;20258;-70
2023/05/09 06:16:43;;;;;;;13.43;7.63;;;16.30;74.70;;;;;;5105241;27;20918;-70
2023/05/09 06:19:34;;;;;;;16.55;8.05;;;16.00;77.10;;;;;;5073410;28;20222;-70
2023/05/09 06:22:23;;;;;;;11.57;7.65;;;15.60;76.00;;;;;;5072434;28;20265;-70
2023/05/09 06:25:12;;;;;;;14.10;8.52;;;15.60;80.80;;;;;;5075079;28;20236;-70
2023/05/09 06:28:01;;;;;;;13.68;7.93;;;15.90;78.90;;;;;;5072965;28;20228;-69
2023/05/09 06:30:50;;;;;;;12.35;7.18;;;17.60;74.80;;;;;;5073198;28;20292;-70
2023/05/09 06:33:39;;;;;;;15.05;7.07;;;18.70;68.80;;;;;;5073389;28;20230;-69
2023/05/09 06:36:29;;;;;;;13.68;6.63;;;18.80;68.60;;;;;;5077109;28;20227;-68
2023/05/09 06:39:18;;;;;;;9.60;6.10;;;18.00;67.90;;;;;;5075515;28;20281;-71
2023/05/09 06:42:07;;;;;;;10.15;6.65;;;17.30;67.60;;;;;;5073123;28;20302;-71
2023/05/09 06:44:59;;;;;;;11.80;6.25;;;16.90;69.10;;;;;;5080644;28;20228;-73
2023/05/09 06:47:48;;;;;;;10.15;5.22;;;16.20;70.10;;;;;;5076290;28;20224;-73
2023/05/09 06:50:37;;;;;;;9.25;5.47;;;16.10;70.70;;;;;;5081417;27;20309;-71
2023/05/09 06:53:27;;;;;;;9.52;5.05;;;15.90;70.60;;;;;;5074211;28;20255;-73
2023/05/09 06:56:18;;;;;;;7.25;5.18;;;15.90;71.80;;;;;;5079047;27;20223;-69
2023/05/09 06:59:12;;;;;;;8.75;4.80;;;16.00;71.20;;;;;;5068593;28;20224;-72
2023/05/09 07:02:01;;;;;;;12.52;4.70;;;16.40;70.10;;;;;;5075476;28;20512;-71
2023/05/09 07:04:50;;;;;;;7.55;4.47;;;16.50;69.60;;;;;;5069210;28;20216;-71
2023/05/09 07:07:39;;;;;;;7.50;4.20;;;16.80;70.10;;;;;;5077697;28;20702;-73
2023/05/09 07:10:29;;;;;;;7.75;4.13;;;16.80;67.60;;;;;;5082200;28;20349;-70
2023/05/09 07:13:18;;;;;;;5.22;3.35;;;16.50;67.50;;;;;;5083514;28;20234;-70
2023/05/09 07:16:07;;;;;;;5.53;2.88;;;16.70;65.10;;;;;;5073884;28;20234;-71
2023/05/09 07:18:56;;;;;;;7.38;3.38;;;17.20;65.90;;;;;;5067667;28;20240;-70
2023/05/09 07:21:45;;;;;;;4.60;3.00;;;17.70;66.30;;;;;;5063748;28;20230;-69
2023/05/09 07:24:34;;;;;;;7.50;2.70;;;17.60;61.40;;;;;;5070598;28;20273;-70
2023/05/09 07:27:24;;;;;;;4.50;2.50;;;18.10;64.50;;;;;;5080261;28;20241;-71
2023/05/09 07:30:14;;;;;;;5.25;2.10;;;18.20;60.50;;;;;;5073657;28;20240;-69
2023/05/09 07:33:03;;;;;;;4.35;2.05;;;18.40;59.00;;;;;;5103895;27;20222;-72
2023/05/09 07:35:52;;;;;;;4.45;2.72;;;18.40;57.80;;;;;;5101222;27;20310;-71
2023/05/09 07:38:41;;;;;;;4.75;2.45;;;18.20;56.30;;;;;;5068642;28;20232;-72
2023/05/09 07:41:32;;;;;;;3.45;2.35;;;18.60;56.30;;;;;;5069301;28;20302;-72
2023/05/09 07:44:23;;;;;;;6.25;2.53;;;19.40;57.10;;;;;;5073191;28;20342;-71
2023/05/09 07:47:11;;;;;;;4.18;2.35;;;19.80;55.70;;;;;;5084904;28;20219;-73
2023/05/09 07:50:00;;;;;;;3.42;1.98;;;20.10;57.90;;;;;;5079719;28;20369;-72
2023/05/09 07:52:50;;;;;;;4.47;2.20;;;20.60;56.50;;;;;;5080638;28;20239;-71
2023/05/09 07:55:39;;;;;;;3.60;2.13;;;20.90;54.90;;;;;;5083230;28;20272;-72
2023/05/09 07:58:28;;;;;;;4.65;2.00;;;20.70;53.40;;;;;;5083831;28;20234;-72
2023/05/09 08:01:18;;;;;;;2.78;2.20;;;21.00;52.10;;;;;;5085868;28;20231;-70
2023/05/09 08:04:08;;;;;;;5.70;2.40;;;21.20;52.20;;;;;;5078630;28;20226;-71
2023/05/09 08:06:58;;;;;;;6.03;2.50;;;21.60;50.40;;;;;;5087984;28;20250;-71
2023/05/09 08:09:48;;;;;;;2.53;2.30;;;22.00;52.30;;;;;;5079446;28;20224;-71
2023/05/09 08:12:37;;;;;;;6.47;2.60;;;22.20;51.10;;;;;;5072568;28;20227;-71
2023/05/09 08:15:26;;;;;;;7.30;2.33;;;22.10;50.60;;;;;;5088871;28;20762;-71
2023/05/09 08:18:16;;;;;;;3.85;2.40;;;22.20;48.30;;;;;;5079630;28;20322;-71
2023/05/09 08:21:05;;;;;;;5.78;2.50;;;22.20;48.90;;;;;;5084439;28;20231;-73
2023/05/09 08:23:54;;;;;;;3.95;2.33;;;22.40;48.50;;;;;;5082997;28;20253;-71
2023/05/09 08:26:44;;;;;;;4.80;2.38;;;22.20;49.90;;;;;;5074986;28;20254;-71
2023/05/09 08:29:32;;;;;;;4.65;2.20;;;22.30;50.60;;;;;;5085767;28;20223;-71
2023/05/09 08:32:21;;;;;;;3.33;2.25;;;23.00;51.10;;;;;;5084386;28;20231;-72
2023/05/09 08:35:12;;;;;;;3.97;2.00;;;23.20;48.10;;;;;;5084578;28;20262;-71
2023/05/09 08:38:02;;;;;;;3.05;2.30;;;23.30;47.90;;;;;;5077553;28;20257;-71
2023/05/09 08:40:51;;;;;;;5.25;2.20;;;23.10;47.50;;;;;;5088068;28;20427;-71
2023/05/09 08:43:41;;;;;;;5.35;2.20;;;22.50;47.60;;;;;;5081846;28;20366;-72
2023/05/09 08:46:38;;;;;;;3.60;2.00;;;23.10;48.10;;;;;;5079043;28;20220;-73
2023/05/09 08:49:28;;;;;;;3.30;2.38;;;23.30;46.10;;;;;;5085989;28;20970;-73
2023/05/09 08:52:18;;;;;;;7.18;2.58;;;23.30;44.30;;;;;;5077293;28;20262;-72
2023/05/09 08:55:08;;;;;;;5.00;2.40;;;23.00;46.40;;;;;;5083838;28;20311;-72
2023/05/09 08:57:58;;;;;;;8.02;2.22;;;22.80;45.90;;;;;;5079485;28;20246;-72
2023/05/09 09:00:47;;;;;;;3.50;1.95;;;23.50;44.70;;;;;;5065397;28;20235;-72
2023/05/09 09:03:38;;;;;;;4.88;2.03;;;23.80;45.20;;;;;;5085256;28;20226;-73
2023/05/09 09:06:29;;;;;;;6.18;1.80;;;24.60;47.20;;;;;;5073439;28;20231;-72
2023/05/09 09:09:21;;;;;;;5.93;2.33;;;24.10;45.50;;;;;;5082400;28;20226;-72
2023/05/09 09:12:10;;;;;;;4.30;2.30;;;23.90;43.40;;;;;;5081219;28;20612;-72
2023/05/09 09:15:04;;;;;;;2.42;2.00;;;24.10;46.10;;;;;;5084936;28;20246;-71
2023/05/09 09:17:55;;;;;;;2.95;2.08;;;23.50;43.00;;;;;;5084200;28;20242;-70
2023/05/09 09:20:47;;;;;;;4.75;2.15;;;24.00;44.90;;;;;;5078500;28;20212;-71
2023/05/09 09:23:39;;;;;;;7.57;2.33;;;24.30;43.80;;;;;;5095054;28;20219;-72
2023/05/09 09:26:30;;;;;;;4.40;2.70;;;25.00;45.40;;;;;;5070938;28;20373;-71
2023/05/09 09:29:21;;;;;;;3.15;2.10;;;24.20;43.40;;;;;;5069528;28;20242;-71
2023/05/09 09:32:10;;;;;;;5.70;2.17;;;25.00;43.50;;;;;;5085004;28;20231;-71
2023/05/09 09:35:05;;;;;;;3.20;2.40;;;26.40;42.00;;;;;;5079081;28;20231;-71
2023/05/09 09:37:58;;;;;;;3.30;2.47;;;25.00;40.30;;;;;;5083950;28;20235;-71
2023/05/09 09:40:54;;;;;;;3.83;2.08;;;24.70;43.00;;;;;;5084082;28;20227;-72
2023/05/09 09:43:46;;;;;;;4.30;2.40;;;26.30;41.50;;;;;;5083588;28;20224;-73
2023/05/09 09:46:43;;;;;;;9.27;2.65;;;27.10;40.50;;;;;;5077771;28;20780;-72
2023/05/09 09:49:32;;;;;;;3.90;2.50;;;27.10;42.00;;;;;;5076026;28;20284;-72
2023/05/09 09:52:24;;;;;;;3.58;2.70;;;28.90;39.70;;;;;;5083600;28;20231;-72
2023/05/09 09:55:13;;;;;;;3.60;2.78;;;28.90;37.50;;;;;;5077440;28;20233;-72
2023/05/09 09:58:03;;;;;;;7.07;3.22;;;29.70;39.70;;;;;;5083242;28;20284;-72
2023/05/09 10:01:06;;;;;;;6.35;2.20;;;30.50;39.30;;;;;;5084178;28;20228;-72
2023/05/09 10:03:55;;;;;;;10.65;2.70;;;31.90;38.40;;;;;;5082625;28;20225;-72
2023/05/09 10:06:53;;;;;;;6.55;2.58;;;31.70;38.00;;;;;;5070775;28;20227;-71
2023/05/09 10:09:42;;;;;;;9.38;2.80;;;30.70;36.10;;;;;;5081736;28;20769;-71
2023/05/09 10:12:33;;;;;;;7.07;2.78;;;30.50;37.90;;;;;;5083266;28;20709;-72
2023/05/09 10:15:22;;;;;;;9.15;3.03;;;32.30;35.80;;;;;;5075691;28;20730;-72
2023/05/09 10:18:18;;;;;;;13.77;3.00;;;32.40;37.60;;;;;;5084657;28;20235;-71
2023/05/09 10:21:10;;;;;;;9.02;2.60;;;33.50;33.70;;;;;;5074934;28;20670;-72
2023/05/09 10:24:00;;;;;;;5.65;2.63;;;31.70;34.10;;;;;;5082195;28;20227;-71
2023/05/09 10:26:51;;;;;;;3.53;2.60;;;31.60;36.50;;;;;;5084360;28;20233;-71
2023/05/09 10:29:45;;;;;;;3.78;2.63;;;33.80;35.30;;;;;;5083363;28;20226;-71
2023/05/09 10:32:42;;;;;;;5.10;2.35;;;34.30;33.60;;;;;;5084142;28;20226;-73
2023/05/09 10:35:36;;;;;;;2.65;2.35;;;34.80;32.90;;;;;;5067779;28;20219;-72
2023/05/09 10:38:25;;;;;;;3.97;2.30;;;35.60;33.40;;;;;;5079083;28;20230;-72
2023/05/09 10:41:15;;;;;;;2.65;2.42;;;35.60;32.30;;;;;;5078000;28;20295;-72
2023/05/09 10:44:05;;;;;;;4.80;2.53;;;36.90;33.20;;;;;;5072512;28;20238;-72
2023/05/09 10:46:55;;;;;;;4.30;2.30;;;36.40;32.20;;;;;;5084450;28;20331;-72
2023/05/09 10:49:45;;;;;;;2.55;2.17;;;37.80;32.50;;;;;;5085428;28;20210;-72
2023/05/09 10:52:55;;;;;;;6.95;2.33;;;38.00;31.80;;;;;;5073652;28;20269;-72
2023/05/09 10:55:54;;;;;;;5.03;2.50;;;38.10;31.30;;;;;;5082361;28;20214;-72
2023/05/09 10:58:42;;;;;;;4.82;2.13;;;35.50;30.60;;;;;;5074902;28;20784;-73
2023/05/09 11:01:35;;;;;;;3.58;2.10;;;35.80;31.10;;;;;;5084056;28;20738;-72
2023/05/09 11:04:25;;;;;;;3.13;2.45;;;36.20;30.20;;;;;;5082357;28;20215;-72
2023/05/09 11:07:25;;;;;;;5.82;2.42;;;36.80;31.60;;;;;;5082275;28;20258;-72
2023/05/09 11:10:17;;;;;;;9.43;2.13;;;37.90;31.20;;;;;;5073079;28;20226;-72
2023/05/09 11:13:09;;;;;;;3.13;2.25;;;37.30;30.20;;;;;;5072643;28;20232;-73
2023/05/09 11:16:12;;;;;;;5.82;2.40;;;37.50;31.40;;;;;;5075708;28;20242;-74
2023/05/09 11:19:01;;;;;;;4.57;2.05;;;37.90;29.80;;;;;;5082338;28;20419;-73
2023/05/09 11:22:01;;;;;;;5.25;2.45;;;36.50;31.20;;;;;;5080431;28;20249;-72
2023/05/09 11:24:52;;;;;;;3.72;2.30;;;40.00;29.90;;;;;;5083919;28;20215;-72
2023/05/09 11:27:43;;;;;;;4.10;2.15;;;;;;;;;;5078237;28;20718;-74
2023/05/09 11:30:42;;;;;;;3.70;2.13;;;40.50;51.10;;;;;;5083921;28;20223;-74
2023/05/09 11:33:32;;;;;;;2.95;2.00;;;39.80;48.70;;;;;;5074615;28;20215;-70
2023/05/09 11:36:28;;;;;;;5.85;2.50;;;43.40;40.10;;;;;;5075586;28;20352;-72
2023/05/09 11:39:25;;;;;;;4.22;2.00;;;43.60;43.20;;;;;;5069700;28;20733;-72
2023/05/09 11:42:14;;;;;;;3.00;1.75;;;42.00;43.70;;;;;;5083322;28;20710;-72
2023/05/09 11:45:06;;;;;;;3.47;2.13;;;41.60;44.40;;;;;;5080073;28;20223;-73
2023/05/09 11:47:57;;;;;;;4.30;2.10;;;41.80;42.20;;;;;;5077963;28;20596;-73
2023/05/09 11:50:48;;;;;;;2.15;1.92;;;42.60;45.10;;;;;;5077952;28;20223;-71
2023/05/09 11:53:45;;;;;;;3.42;2.17;;;44.20;45.50;;;;;;5073267;28;20227;-73
2023/05/09 11:56:35;;;;;;;4.63;2.25;;;46.10;39.50;;;;;;5074873;28;20240;-72
2023/05/09 11:59:25;;;;;;;2.25;2.05;;;46.00;35.60;;;;;;5085130;28;20225;-73
2023/05/09 12:02:15;;;;;;;4.97;2.35;;;46.20;33.50;;;;;;5078604;28;20231;-71
2023/05/09 12:05:09;;;;;;;4.28;1.90;;;44.70;37.10;;;;;;5080126;28;20236;-73
2023/05/09 12:08:03;;;;;;;2.40;2.20;;;44.20;31.30;;;;;;5072015;28;20273;-72
2023/05/09 12:10:52;;;;;;;3.05;2.03;;;43.70;29.40;;;;;;5076887;28;20225;-72
2023/05/09 12:13:48;;;;;;;4.90;1.73;;;44.30;29.70;;;;;;5079796;28;20299;-72
2023/05/09 12:16:45;;;;;;;4.00;2.10;;;44.10;29.80;;;;;;5087989;28;20244;-72
2023/05/09 12:19:35;;;;;;;4.07;1.80;;;44.90;29.40;;;;;;5076676;28;20219;-73
2023/05/09 12:22:26;;;;;;;3.58;2.00;;;47.70;28.40;;;;;;5075865;28;20216;-72
2023/05/09 12:25:15;;;;;;;5.72;1.90;;;46.70;30.20;;;;;;5083405;28;20222;-73
2023/05/09 12:28:05;;;;;;;4.18;2.00;;;43.80;30.80;;;;;;5089767;28;20700;-73
2023/05/09 12:30:54;;;;;;;3.72;1.63;;;41.20;32.60;;;;;;5082136;28;20722;-73
2023/05/09 12:33:44;;;;;;;4.72;1.90;;;33.40;28.40;;;;;;5088891;28;20299;-72
2023/05/09 12:36:35;;;;;;;5.30;1.90;;;31.20;38.40;;;;;;5081468;28;20215;-73
2023/05/09 12:39:26;;;;;;;4.47;2.53;;;;;;;;;;5084837;28;20295;-71
2023/05/09 12:42:15;;;;;;;3.35;1.92;;;27.40;33.00;;;;;;5087923;28;20218;-72
2023/05/09 12:45:04;;;;;;;4.38;1.90;;;25.80;35.20;;;;;;5087598;28;20250;-72
2023/05/09 12:47:53;;;;;;;5.35;2.55;;;25.20;37.00;;;;;;5085082;28;20227;-72
2023/05/09 12:50:47;;;;;;;5.90;2.40;;;24.60;38.30;;;;;;5081141;28;20222;-71
2023/05/09 12:53:39;;;;;;;3.53;2.38;;;24.10;43.00;;;;;;5074081;28;20245;-72
2023/05/09 12:56:34;;;;;;;3.72;2.60;;;24.30;42.30;;;;;;5076394;28;20223;-72
2023/05/09 12:59:23;;;;;;;4.22;2.72;;;24.00;43.10;;;;;;5080423;28;20884;-72
2023/05/09 13:02:13;;;;;;;5.93;2.80;;;23.50;50.30;;;;;;5085492;28;20233;-74
2023/05/09 13:05:07;;;;;;;3.63;2.50;;;22.50;46.20;;;;;;5072084;28;20230;-73
2023/05/09 13:07:57;;;;;;;4.45;2.30;;;21.20;45.10;;;;;;5074171;28;20247;-72
2023/05/09 13:10:46;;;;;;;4.68;2.25;;;21.60;46.90;;;;;;5079848;28;20223;-72
2023/05/09 13:13:36;;;;;;;2.72;2.20;;;21.10;46.30;;;;;;5079026;28;20223;-73
2023/05/09 13:16:25;;;;;;;4.43;2.13;;;21.50;49.00;;;;;;5070677;28;20249;-73
2023/05/09 13:19:15;;;;;;;2.38;2.15;;;21.60;47.70;;;;;;5072247;28;20353;-73
2023/05/09 13:22:03;;;;;;;4.47;2.22;;;21.40;46.80;;;;;;5084117;28;20227;-72
2023/05/09 13:24:52;;;;;;;6.97;2.25;;;21.20;45.50;;;;;;5075887;28;20368;-72
2023/05/09 13:27:41;;;;;;;3.38;2.00;;;21.10;44.10;;;;;;5078636;28;20230;-73
2023/05/09 13:30:31;;;;;;;4.68;2.80;;;21.50;45.60;;;;;;5079958;28;20314;-73
2023/05/09 13:33:20;;;;;;;6.65;3.33;;;21.60;46.10;;;;;;5079260;28;20315;-71
2023/05/09 13:36:14;;;;;;;2.78;2.33;;;21.40;45.30;;;;;;5090542;28;20233;-72
2023/05/09 13:39:03;;;;;;;3.50;2.65;;;21.30;45.10;;;;;;5072705;28;20231;-70
2023/05/09 13:41:52;;;;;;;4.07;2.38;;;20.80;45.40;;;;;;5087218;28;20302;-71
2023/05/09 13:44:41;;;;;;;2.90;2.28;;;21.00;46.00;;;;;;5074425;28;20223;-73
2023/05/09 13:47:32;;;;;;;4.28;2.22;;;20.50;46.40;;;;;;5084269;28;20220;-72
2023/05/09 13:50:21;;;;;;;3.95;2.10;;;20.50;47.60;;;;;;5077133;28;20255;-72
2023/05/09 13:53:10;;;;;;;4.05;2.00;;;20.50;48.10;;;;;;5073679;28;20627;-72
2023/05/09 13:55:59;;;;;;;6.45;2.47;;;20.60;48.40;;;;;;5065036;28;20895;-72
2023/05/09 13:58:48;;;;;;;5.60;2.22;;;20.50;48.30;;;;;;5064347;28;20456;-71
2023/05/09 14:01:38;;;;;;;4.57;2.30;;;20.60;48.80;;;;;;5069257;28;20357;-71
2023/05/09 14:04:30;;;;;;;3.67;1.90;;;20.50;52.10;;;;;;5074716;28;20227;-70
2023/05/09 14:07:20;;;;;;;5.32;2.03;;;20.70;51.60;;;;;;5070535;28;20698;-69
2023/05/09 14:10:10;;;;;;;5.63;2.60;;;20.50;52.00;;;;;;5075717;28;20236;-71
2023/05/09 14:12:59;;;;;;;4.18;2.20;;;20.20;50.30;;;;;;5074665;28;20435;-72
2023/05/09 14:15:48;;;;;;;3.67;2.03;;;20.10;51.00;;;;;;5077386;28;20310;-70
2023/05/09 14:18:37;;;;;;;3.17;2.20;;;19.80;49.00;;;;;;5072521;28;20312;-69
2023/05/09 14:21:27;;;;;;;5.03;2.40;;;19.80;51.50;;;;;;5070451;28;20232;-70
2023/05/09 14:24:17;;;;;;;6.75;2.40;;;19.80;45.60;;;;;;5067030;28;20369;-70
2023/05/09 14:27:05;;;;;;;2.65;2.22;;;19.80;45.60;;;;;;5073484;28;20270;-70
2023/05/09 14:29:55;;;;;;;2.22;2.00;;;19.70;45.70;;;;;;5070324;28;20773;-69
2023/05/09 14:32:43;;;;;;;3.45;2.10;;;19.50;45.60;;;;;;5073656;28;20239;-68
2023/05/09 14:35:33;;;;;;;3.65;2.40;;;19.60;46.80;;;;;;5073330;28;20231;-69
2023/05/09 14:38:23;;;;;;;4.85;1.98;;;19.60;45.60;;;;;;5079968;28;20216;-67
2023/05/09 14:41:13;;;;;;;3.00;2.00;;;19.70;46.00;;;;;;5072791;28;20284;-69